createdAt,value
2018-09-16T00:01:42.551Z,14.30
2018-09-16T00:04:10.989Z,14.30
2018-09-16T00:06:39.416Z,14.00
2018-09-16T00:09:09.722Z,13.80
2018-09-16T00:11:38.209Z,13.60
2018-09-16T00:14:06.798Z,13.60
2018-09-16T00:16:35.290Z,13.50
2018-09-16T00:19:03.667Z,13.60
2018-09-16T00:21:32.034Z,13.50
2018-09-16T00:24:00.509Z,13.50
2018-09-16T00:26:29.025Z,13.50
2018-09-16T00:28:57.432Z,13.50
2018-09-16T00:31:25.871Z,13.60
2018-09-16T00:33:54.180Z,13.60
2018-09-16T00:36:22.576Z,13.50
2018-09-16T00:38:50.925Z,13.40
2018-09-16T00:41:19.456Z,13.40
2018-09-16T00:43:47.854Z,13.30
2018-09-16T00:46:16.453Z,13.30
2018-09-16T00:48:44.978Z,13.20
2018-09-16T00:51:13.431Z,13.20
2018-09-16T00:53:41.822Z,13.20
2018-09-16T00:56:10.305Z,13.20
2018-09-16T00:58:38.653Z,13.20
2018-09-16T01:01:07.062Z,13.20
2018-09-16T01:03:35.377Z,13.20
2018-09-16T01:06:11.772Z,13.20
2018-09-16T01:08:40.201Z,13.20
2018-09-16T01:11:08.569Z,13.10
2018-09-16T01:13:36.961Z,13.00
2018-09-16T01:16:05.410Z,13.00
2018-09-16T01:18:33.746Z,12.90
2018-09-16T01:21:02.154Z,12.90
2018-09-16T01:23:30.589Z,12.90
2018-09-16T01:25:58.901Z,12.80
2018-09-16T01:28:27.266Z,12.80
2018-09-16T01:30:55.847Z,12.80
2018-09-16T01:33:24.169Z,12.70
2018-09-16T01:35:52.505Z,12.70
2018-09-16T01:38:24.150Z,12.70
2018-09-16T01:40:54.132Z,12.70
2018-09-16T01:43:22.775Z,12.70
2018-09-16T01:45:51.141Z,12.60
2018-09-16T01:48:19.582Z,12.60
2018-09-16T01:50:48.000Z,12.60
2018-09-16T01:53:16.361Z,12.50
2018-09-16T01:55:44.761Z,12.50
2018-09-16T01:58:13.469Z,12.50
2018-09-16T02:00:41.812Z,12.50
2018-09-16T02:03:10.199Z,12.50
2018-09-16T02:05:43.953Z,12.50
2018-09-16T02:08:12.289Z,12.50
2018-09-16T02:10:40.765Z,12.40
2018-09-16T02:13:09.209Z,12.40
2018-09-16T02:15:37.529Z,12.40
2018-09-16T02:18:05.929Z,12.40
2018-09-16T02:20:34.330Z,12.30
2018-09-16T02:23:02.793Z,12.30
2018-09-16T02:25:31.165Z,12.30
2018-09-16T02:27:59.671Z,12.30
2018-09-16T02:30:28.118Z,12.20
2018-09-16T02:32:56.503Z,12.20
2018-09-16T02:35:24.825Z,12.20
2018-09-16T02:37:53.175Z,12.10
2018-09-16T02:40:21.553Z,12.10
2018-09-16T02:42:50.030Z,12.10
2018-09-16T02:45:18.349Z,12.00
2018-09-16T02:47:46.903Z,12.00
2018-09-16T02:50:15.350Z,12.00
2018-09-16T02:52:43.717Z,12.00
2018-09-16T02:55:12.181Z,12.00
2018-09-16T02:57:40.552Z,12.00
2018-09-16T03:00:09.036Z,12.00
2018-09-16T03:02:37.517Z,12.10
2018-09-16T03:05:05.907Z,12.00
2018-09-16T03:07:34.350Z,12.00
2018-09-16T03:10:02.692Z,12.00
2018-09-16T03:12:31.045Z,11.90
2018-09-16T03:14:59.525Z,11.90
2018-09-16T03:17:27.975Z,11.80
2018-09-16T03:19:56.450Z,11.80
2018-09-16T03:22:24.946Z,11.90
2018-09-16T03:24:53.351Z,11.80
2018-09-16T03:27:21.952Z,11.80
2018-09-16T03:29:50.314Z,11.80
2018-09-16T03:32:18.629Z,11.70
2018-09-16T03:34:47.080Z,11.80
2018-09-16T03:37:15.502Z,11.70
2018-09-16T03:39:43.959Z,11.80
2018-09-16T03:42:12.376Z,11.80
2018-09-16T03:44:40.998Z,11.80
2018-09-16T03:47:09.339Z,11.70
2018-09-16T03:49:37.840Z,11.70
2018-09-16T03:52:06.334Z,11.70
2018-09-16T03:54:34.790Z,11.70
2018-09-16T03:57:03.250Z,11.60
2018-09-16T03:59:31.649Z,11.60
2018-09-16T04:02:00.003Z,11.60
2018-09-16T04:04:28.384Z,11.60
2018-09-16T04:06:56.765Z,11.50
2018-09-16T04:09:25.103Z,11.50
2018-09-16T04:11:53.603Z,11.50
2018-09-16T04:14:22.186Z,11.50
2018-09-16T04:16:50.709Z,11.50
2018-09-16T04:19:19.109Z,11.50
2018-09-16T04:21:47.589Z,11.50
2018-09-16T04:24:15.974Z,11.50
2018-09-16T04:26:44.453Z,11.50
2018-09-16T04:29:12.856Z,11.40
2018-09-16T04:31:41.389Z,11.40
2018-09-16T04:34:09.921Z,11.40
2018-09-16T04:36:38.322Z,11.40
2018-09-16T04:39:08.526Z,11.30
2018-09-16T04:41:36.869Z,11.30
2018-09-16T04:44:05.513Z,11.30
2018-09-16T04:46:33.958Z,11.30
2018-09-16T04:49:02.525Z,11.30
2018-09-16T04:51:30.934Z,11.20
2018-09-16T04:53:59.309Z,11.20
2018-09-16T04:56:27.713Z,11.20
2018-09-16T04:58:56.253Z,11.30
2018-09-16T05:01:24.693Z,11.30
2018-09-16T05:03:53.026Z,11.30
2018-09-16T05:06:21.399Z,11.20
2018-09-16T05:08:49.762Z,11.20
2018-09-16T05:11:18.417Z,11.20
2018-09-16T05:13:47.066Z,11.20
2018-09-16T05:16:15.405Z,11.20
2018-09-16T05:18:43.842Z,11.20
2018-09-16T05:21:12.157Z,11.10
2018-09-16T05:23:40.554Z,11.20
2018-09-16T05:26:08.906Z,11.20
2018-09-16T05:28:37.417Z,11.30
2018-09-16T05:31:05.797Z,11.30
2018-09-16T05:33:34.197Z,11.30
2018-09-16T05:36:02.560Z,11.30
2018-09-16T05:38:30.942Z,11.20
2018-09-16T05:40:59.358Z,11.20
2018-09-16T05:43:27.772Z,11.20
2018-09-16T05:45:56.072Z,11.30
2018-09-16T05:48:24.429Z,11.30
2018-09-16T05:50:52.786Z,11.40
2018-09-16T05:53:21.244Z,11.40
2018-09-16T05:55:49.557Z,11.50
2018-09-16T05:58:17.938Z,11.50
2018-09-16T06:00:46.274Z,11.50
2018-09-16T06:03:14.697Z,11.60
2018-09-16T06:05:43.605Z,11.60
2018-09-16T06:08:12.125Z,11.60
2018-09-16T06:10:40.499Z,11.80
2018-09-16T06:13:08.850Z,11.90
2018-09-16T06:15:37.834Z,12.10
2018-09-16T06:18:06.230Z,12.30
2018-09-16T06:20:34.584Z,12.30
2018-09-16T06:23:02.986Z,12.70
2018-09-16T06:25:31.321Z,12.70
2018-09-16T06:27:59.790Z,12.70
2018-09-16T06:30:28.134Z,12.80
2018-09-16T06:32:56.538Z,12.80
2018-09-16T06:35:24.907Z,12.90
2018-09-16T06:37:53.302Z,12.80
2018-09-16T06:40:21.629Z,13.00
2018-09-16T06:42:50.513Z,13.00
2018-09-16T06:45:19.075Z,13.20
2018-09-16T06:47:47.590Z,13.50
2018-09-16T06:50:16.030Z,13.80
2018-09-16T06:52:44.413Z,14.60
2018-09-16T06:55:13.061Z,14.80
2018-09-16T06:57:41.566Z,15.30
2018-09-16T07:00:10.685Z,15.70
2018-09-16T07:02:39.414Z,16.90
2018-09-16T07:05:07.776Z,17.10
2018-09-16T07:07:36.190Z,17.20
2018-09-16T07:10:04.806Z,17.80
2018-09-16T07:12:33.179Z,18.30
2018-09-16T07:15:01.537Z,18.30
2018-09-16T07:17:29.897Z,18.20
2018-09-16T07:19:58.400Z,16.70
2018-09-16T07:22:26.857Z,15.80
2018-09-16T07:24:55.349Z,15.50
2018-09-16T07:27:23.899Z,15.40
2018-09-16T07:29:52.231Z,16.60
2018-09-16T07:32:20.671Z,17.60
2018-09-16T07:34:49.398Z,17.40
2018-09-16T07:37:17.773Z,17.10
2018-09-16T07:39:46.294Z,17.30
2018-09-16T07:42:14.622Z,17.30
2018-09-16T07:44:43.239Z,16.50
2018-09-16T07:47:11.654Z,16.20
2018-09-16T07:49:40.014Z,15.90
2018-09-16T07:52:08.554Z,15.80
2018-09-16T07:54:37.080Z,15.90
2018-09-16T07:57:06.306Z,15.70
2018-09-16T07:59:34.840Z,15.80
2018-09-16T08:02:03.291Z,16.00
2018-09-16T08:04:31.872Z,16.10
2018-09-16T08:07:00.217Z,16.40
2018-09-16T08:09:28.606Z,17.10
2018-09-16T08:11:57.001Z,17.30
2018-09-16T08:14:25.372Z,17.40
2018-09-16T08:16:53.842Z,17.60
2018-09-16T08:19:22.314Z,17.90
2018-09-16T08:21:50.706Z,18.40
2018-09-16T08:24:19.151Z,18.80
2018-09-16T08:26:47.580Z,18.00
2018-09-16T08:29:16.013Z,17.80
2018-09-16T08:31:44.399Z,18.00
2018-09-16T08:34:12.781Z,18.00
2018-09-16T08:36:41.266Z,17.90
2018-09-16T08:39:11.301Z,17.90
2018-09-16T08:41:39.909Z,18.40
2018-09-16T08:44:08.722Z,18.60
2018-09-16T08:46:37.231Z,18.90
2018-09-16T08:49:05.663Z,18.80
2018-09-16T08:51:34.077Z,19.30
2018-09-16T08:54:02.475Z,19.70
2018-09-16T08:56:30.933Z,18.90
2018-09-16T08:58:59.332Z,18.90
2018-09-16T09:01:27.809Z,19.00
2018-09-16T09:03:56.172Z,19.60
2018-09-16T09:06:24.644Z,20.50
2018-09-16T09:08:53.185Z,21.70
2018-09-16T09:11:21.550Z,21.50
2018-09-16T09:13:49.889Z,21.70
2018-09-16T09:16:18.290Z,23.00
2018-09-16T09:18:46.653Z,21.90
2018-09-16T09:21:14.998Z,22.20
2018-09-16T09:23:43.517Z,21.70
2018-09-16T09:26:11.982Z,21.50
2018-09-16T09:28:40.343Z,22.50
2018-09-16T09:31:08.738Z,22.30
2018-09-16T09:33:37.126Z,21.60
2018-09-16T09:36:05.453Z,22.60
2018-09-16T09:38:33.854Z,22.40
2018-09-16T09:41:03.050Z,22.50
2018-09-16T09:43:31.388Z,23.60
2018-09-16T09:46:00.081Z,24.50
2018-09-16T09:48:28.734Z,23.90
2018-09-16T09:50:57.221Z,25.20
2018-09-16T09:53:25.587Z,25.80
2018-09-16T09:55:54.071Z,26.20
2018-09-16T09:58:22.419Z,26.40
2018-09-16T10:00:51.730Z,25.60
2018-09-16T10:03:21.130Z,24.40
2018-09-16T10:05:50.195Z,24.80
2018-09-16T10:08:18.810Z,25.40
2018-09-16T10:10:47.546Z,26.70
2018-09-16T10:13:16.205Z,27.00
2018-09-16T10:15:44.607Z,27.00
2018-09-16T10:18:12.953Z,26.40
2018-09-16T10:20:41.478Z,27.50
2018-09-16T10:23:09.870Z,28.10
2018-09-16T10:25:38.859Z,26.80
2018-09-16T10:28:07.213Z,27.30
2018-09-16T10:30:35.577Z,27.00
2018-09-16T10:33:04.116Z,26.10
2018-09-16T10:35:32.537Z,26.40
2018-09-16T10:38:01.078Z,27.00
2018-09-16T10:40:29.532Z,27.40
2018-09-16T10:42:58.218Z,28.10
2018-09-16T10:45:26.590Z,27.60
2018-09-16T10:47:55.078Z,27.10
2018-09-16T10:50:23.580Z,27.70
2018-09-16T10:52:51.988Z,28.30
2018-09-16T10:55:20.506Z,27.60
2018-09-16T10:57:48.907Z,27.60
2018-09-16T11:00:17.369Z,27.80
2018-09-16T11:02:45.922Z,27.80
2018-09-16T11:05:14.541Z,28.40
2018-09-16T11:07:43.088Z,28.90
2018-09-16T11:10:11.505Z,27.40
2018-09-16T11:12:39.970Z,28.10
2018-09-16T11:15:08.557Z,27.60
2018-09-16T11:17:36.970Z,28.00
2018-09-16T11:20:05.425Z,27.30
2018-09-16T11:22:33.869Z,27.50
2018-09-16T11:25:02.314Z,27.10
2018-09-16T11:27:30.714Z,26.10
2018-09-16T11:29:59.149Z,28.00
2018-09-16T11:32:34.190Z,28.70
2018-09-16T11:35:02.606Z,28.80
2018-09-16T11:37:31.073Z,28.00
2018-09-16T11:39:59.415Z,28.20
2018-09-16T11:42:28.158Z,28.60
2018-09-16T11:44:56.501Z,28.00
2018-09-16T11:47:25.218Z,28.40
2018-09-16T11:49:53.582Z,28.40
2018-09-16T11:52:21.936Z,27.10
2018-09-16T11:54:50.391Z,27.90
2018-09-16T11:57:19.118Z,28.50
2018-09-16T11:59:47.593Z,28.50
2018-09-16T12:02:16.033Z,28.20
2018-09-16T12:04:44.572Z,27.20
2018-09-16T12:07:12.990Z,27.30
2018-09-16T12:09:41.357Z,27.90
2018-09-16T12:12:09.840Z,27.50
2018-09-16T12:14:38.351Z,27.90
2018-09-16T12:17:06.725Z,28.00
2018-09-16T12:19:35.174Z,27.70
2018-09-16T12:22:03.734Z,27.20
2018-09-16T12:24:32.294Z,27.80
2018-09-16T12:27:00.729Z,28.10
2018-09-16T12:29:29.113Z,27.80
2018-09-16T12:31:57.662Z,27.60
2018-09-16T12:34:26.522Z,26.30
2018-09-16T12:36:54.942Z,25.10
2018-09-16T12:39:23.311Z,26.40
2018-09-16T12:41:51.750Z,26.50
2018-09-16T12:44:20.282Z,26.10
2018-09-16T12:46:48.669Z,27.10
2018-09-16T12:49:17.105Z,26.90
2018-09-16T12:51:45.459Z,26.10
2018-09-16T12:54:14.053Z,26.10
2018-09-16T12:56:42.437Z,27.20
2018-09-16T12:59:10.818Z,27.70
2018-09-16T13:01:39.233Z,26.50
2018-09-16T13:04:07.751Z,27.30
2018-09-16T13:06:36.081Z,27.20
2018-09-16T13:09:08.151Z,26.30
2018-09-16T13:11:36.517Z,25.50
2018-09-16T13:14:04.901Z,25.10
2018-09-16T13:16:33.542Z,26.90
2018-09-16T13:19:02.125Z,26.90
2018-09-16T13:21:30.626Z,25.80
2018-09-16T13:23:59.029Z,26.00
2018-09-16T13:26:27.504Z,27.60
2018-09-16T13:28:55.826Z,27.30
2018-09-16T13:31:24.346Z,26.30
2018-09-16T13:33:52.702Z,26.60
2018-09-16T13:36:21.347Z,26.90
2018-09-16T13:38:49.833Z,27.90
2018-09-16T13:41:18.397Z,28.10
2018-09-16T13:43:47.534Z,26.40
2018-09-16T13:46:15.967Z,25.30
2018-09-16T13:48:44.446Z,25.10
2018-09-16T13:51:12.847Z,25.90
2018-09-16T13:53:41.410Z,26.90
2018-09-16T13:56:09.957Z,27.50
2018-09-16T13:58:38.382Z,26.60
2018-09-16T14:01:06.904Z,27.40
2018-09-16T14:03:35.318Z,27.90
2018-09-16T14:06:03.760Z,28.20
2018-09-16T14:08:32.172Z,28.20
2018-09-16T14:11:00.566Z,27.30
2018-09-16T14:13:28.998Z,27.20
2018-09-16T14:15:57.685Z,25.90
2018-09-16T14:18:26.245Z,25.30
2018-09-16T14:20:55.209Z,25.30
2018-09-16T14:23:23.721Z,26.00
2018-09-16T14:25:52.087Z,26.10
2018-09-16T14:28:21.076Z,26.30
2018-09-16T14:30:49.581Z,27.10
2018-09-16T14:33:18.051Z,26.90
2018-09-16T14:35:46.447Z,26.70
2018-09-16T14:38:14.802Z,27.00
2018-09-16T14:40:43.229Z,27.20
2018-09-16T14:43:11.670Z,27.40
2018-09-16T14:45:40.049Z,27.20
2018-09-16T14:48:08.422Z,26.60
2018-09-16T14:50:36.901Z,27.00
2018-09-16T14:53:05.402Z,27.60
2018-09-16T14:55:33.873Z,27.90
2018-09-16T14:58:02.300Z,26.50
2018-09-16T15:00:30.738Z,26.70
2018-09-16T15:02:59.273Z,27.30
2018-09-16T15:05:27.701Z,27.40
2018-09-16T15:07:56.312Z,26.90
2018-09-16T15:10:24.689Z,26.40
2018-09-16T15:12:53.174Z,25.70
2018-09-16T15:15:21.563Z,25.80
2018-09-16T15:17:49.942Z,25.60
2018-09-16T15:20:18.582Z,25.30
2018-09-16T15:22:47.149Z,25.10
2018-09-16T15:25:15.582Z,25.30
2018-09-16T15:27:44.102Z,25.20
2018-09-16T15:30:12.655Z,25.20
2018-09-16T15:32:41.166Z,25.20
2018-09-16T15:35:09.620Z,25.00
2018-09-16T15:37:38.134Z,25.10
2018-09-16T15:40:06.657Z,25.60
2018-09-16T15:42:35.115Z,25.70
2018-09-16T15:45:03.641Z,25.40
2018-09-16T15:47:32.134Z,25.90
2018-09-16T15:50:00.670Z,26.30
2018-09-16T15:52:29.034Z,26.70
2018-09-16T15:54:57.422Z,27.00
2018-09-16T15:57:25.907Z,26.90
2018-09-16T15:59:54.294Z,27.40
2018-09-16T16:02:23.041Z,26.80
2018-09-16T16:04:51.542Z,26.90
2018-09-16T16:07:20.025Z,27.30
2018-09-16T16:09:48.431Z,26.50
2018-09-16T16:12:16.801Z,26.30
2018-09-16T16:14:45.291Z,26.50
2018-09-16T16:17:13.818Z,26.60
2018-09-16T16:19:42.216Z,26.40
2018-09-16T16:22:10.617Z,25.90
2018-09-16T16:24:39.085Z,25.80
2018-09-16T16:27:07.511Z,25.90
2018-09-16T16:29:36.273Z,26.00
2018-09-16T16:32:04.731Z,25.80
2018-09-16T16:34:33.091Z,25.60
2018-09-16T16:37:01.530Z,25.10
2018-09-16T16:39:30.002Z,24.80
2018-09-16T16:41:58.392Z,24.70
2018-09-16T16:44:26.832Z,24.70
2018-09-16T16:46:55.223Z,24.50
2018-09-16T16:49:23.591Z,24.20
2018-09-16T16:51:52.153Z,24.20
2018-09-16T16:54:20.525Z,24.30
2018-09-16T16:56:48.986Z,24.20
2018-09-16T16:59:17.354Z,24.30
2018-09-16T17:01:45.743Z,24.20
2018-09-16T17:04:14.413Z,24.30
2018-09-16T17:06:42.903Z,24.50
2018-09-16T17:09:11.422Z,24.70
2018-09-16T17:11:40.190Z,24.40
2018-09-16T17:14:08.578Z,24.50
2018-09-16T17:16:36.965Z,24.50
2018-09-16T17:19:05.374Z,24.40
2018-09-16T17:21:33.718Z,24.20
2018-09-16T17:24:02.111Z,24.00
2018-09-16T17:26:30.575Z,24.00
2018-09-16T17:28:59.271Z,24.00
2018-09-16T17:31:27.683Z,23.70
2018-09-16T17:33:56.287Z,23.60
2018-09-16T17:36:24.733Z,23.60
2018-09-16T17:38:53.347Z,23.70
2018-09-16T17:41:21.786Z,23.90
2018-09-16T17:43:50.424Z,23.90
2018-09-16T17:46:19.011Z,23.70
2018-09-16T17:48:47.418Z,23.70
2018-09-16T17:51:15.793Z,23.50
2018-09-16T17:53:44.419Z,23.40
2018-09-16T17:56:13.020Z,23.40
2018-09-16T17:58:41.565Z,23.30
2018-09-16T18:01:10.025Z,23.10
2018-09-16T18:03:38.378Z,23.00
2018-09-16T18:06:06.816Z,22.90
2018-09-16T18:08:40.734Z,22.90
2018-09-16T18:11:09.311Z,22.80
2018-09-16T18:13:38.000Z,22.10
2018-09-16T18:16:06.398Z,21.80
2018-09-16T18:18:34.858Z,21.80
2018-09-16T18:21:03.359Z,21.80
2018-09-16T18:23:31.743Z,22.10
2018-09-16T18:26:00.365Z,21.90
2018-09-16T18:28:28.862Z,21.70
2018-09-16T18:30:57.531Z,21.60
2018-09-16T18:33:25.899Z,22.00
2018-09-16T18:35:54.352Z,22.10
2018-09-16T18:38:22.734Z,22.10
2018-09-16T18:40:51.208Z,22.10
2018-09-16T18:43:20.154Z,22.10
2018-09-16T18:45:48.573Z,22.10
2018-09-16T18:48:16.946Z,21.90
2018-09-16T18:50:45.461Z,21.80
2018-09-16T18:53:14.064Z,21.70
2018-09-16T18:55:42.445Z,21.70
2018-09-16T18:58:10.961Z,21.70
2018-09-16T19:00:39.385Z,21.60
2018-09-16T19:03:07.889Z,21.50
2018-09-16T19:05:36.274Z,21.40
2018-09-16T19:08:04.808Z,21.40
2018-09-16T19:10:33.263Z,21.20
2018-09-16T19:13:01.597Z,21.10
2018-09-16T19:15:30.174Z,21.10
2018-09-16T19:17:58.557Z,21.10
2018-09-16T19:20:26.932Z,21.20
2018-09-16T19:22:55.534Z,21.20
2018-09-16T19:25:24.181Z,21.30
2018-09-16T19:27:52.702Z,21.30
2018-09-16T19:30:21.190Z,20.70
2018-09-16T19:32:49.579Z,20.40
2018-09-16T19:35:18.009Z,20.10
2018-09-16T19:37:46.420Z,19.90
2018-09-16T19:40:15.190Z,20.00
2018-09-16T19:42:43.591Z,19.90
2018-09-16T19:45:11.938Z,20.10
2018-09-16T19:47:40.294Z,20.30
2018-09-16T19:50:08.906Z,20.20
2018-09-16T19:52:37.328Z,19.90
2018-09-16T19:55:05.728Z,19.70
2018-09-16T19:57:34.350Z,19.60
2018-09-16T20:00:02.822Z,19.60
2018-09-16T20:02:31.151Z,19.70
2018-09-16T20:04:59.573Z,19.80
2018-09-16T20:07:28.856Z,19.60
2018-09-16T20:09:57.245Z,19.30
2018-09-16T20:12:25.618Z,19.10
2018-09-16T20:14:54.229Z,19.10
2018-09-16T20:17:22.647Z,19.00
2018-09-16T20:19:51.178Z,18.90
2018-09-16T20:22:19.527Z,19.00
2018-09-16T20:24:47.983Z,19.00
2018-09-16T20:27:16.683Z,19.00
2018-09-16T20:29:45.152Z,19.20
2018-09-16T20:32:13.637Z,19.10
2018-09-16T20:34:42.050Z,19.30
2018-09-16T20:37:10.593Z,19.10
2018-09-16T20:39:39.006Z,18.80
2018-09-16T20:42:12.205Z,18.70
2018-09-16T20:44:40.703Z,18.60
2018-09-16T20:47:09.193Z,18.80
2018-09-16T20:49:37.533Z,19.10
2018-09-16T20:52:06.000Z,19.20
2018-09-16T20:54:34.357Z,19.30
2018-09-16T20:57:02.806Z,19.30
2018-09-16T20:59:31.391Z,18.90
2018-09-16T21:01:59.768Z,18.60
2018-09-16T21:04:28.268Z,18.50
2018-09-16T21:06:56.654Z,18.70
2018-09-16T21:09:25.547Z,19.00
2018-09-16T21:11:53.987Z,19.20
2018-09-16T21:14:22.360Z,19.10
2018-09-16T21:16:50.984Z,19.00
2018-09-16T21:19:19.469Z,19.00
2018-09-16T21:21:47.881Z,18.90
2018-09-16T21:24:16.477Z,18.80
2018-09-16T21:26:44.869Z,18.80
2018-09-16T21:29:13.357Z,18.80
2018-09-16T21:31:41.751Z,18.70
2018-09-16T21:34:10.106Z,18.40
2018-09-16T21:36:38.669Z,18.10
2018-09-16T21:39:09.669Z,17.90
2018-09-16T21:41:38.034Z,17.80
2018-09-16T21:44:06.454Z,17.70
2018-09-16T21:46:34.915Z,17.50
2018-09-16T21:49:03.597Z,17.40
2018-09-16T21:51:32.218Z,17.60
2018-09-16T21:54:00.783Z,17.90
2018-09-16T21:56:29.250Z,17.80
2018-09-16T21:58:57.608Z,17.70
2018-09-16T22:01:25.961Z,17.50
2018-09-16T22:03:54.311Z,17.40
2018-09-16T22:06:22.678Z,17.70
2018-09-16T22:08:51.061Z,17.60
2018-09-16T22:11:19.577Z,17.40
2018-09-16T22:13:48.024Z,17.20
2018-09-16T22:16:16.570Z,17.10
2018-09-16T22:18:45.027Z,17.10
2018-09-16T22:21:13.361Z,17.10
2018-09-16T22:23:41.980Z,17.10
2018-09-16T22:26:10.490Z,17.10
2018-09-16T22:28:38.907Z,17.30
2018-09-16T22:31:07.408Z,17.50
2018-09-16T22:33:35.770Z,17.30
2018-09-16T22:36:04.526Z,17.20
2018-09-16T22:38:32.865Z,17.20
2018-09-16T22:41:01.225Z,17.00
2018-09-16T22:43:29.641Z,17.20
2018-09-16T22:45:58.176Z,17.40
2018-09-16T22:48:26.489Z,17.40
2018-09-16T22:50:55.050Z,17.10
2018-09-16T22:53:23.590Z,16.90
2018-09-16T22:55:51.941Z,16.70
2018-09-16T22:58:20.322Z,16.50
2018-09-16T23:00:48.681Z,16.40
2018-09-16T23:03:17.054Z,16.50
2018-09-16T23:05:45.393Z,16.50
2018-09-16T23:08:13.759Z,16.50
2018-09-16T23:10:42.085Z,16.70
2018-09-16T23:13:10.482Z,16.80
2018-09-16T23:15:38.813Z,16.60
2018-09-16T23:18:07.326Z,16.40
2018-09-16T23:20:35.886Z,16.30
2018-09-16T23:23:04.234Z,16.20
2018-09-16T23:25:32.706Z,16.30
2018-09-16T23:28:01.061Z,16.50
2018-09-16T23:30:29.586Z,16.40
2018-09-16T23:32:58.167Z,16.30
2018-09-16T23:35:26.636Z,16.20
2018-09-16T23:37:55.039Z,16.00
2018-09-16T23:40:23.421Z,16.00
2018-09-16T23:42:51.849Z,15.90
2018-09-16T23:45:20.218Z,16.10
2018-09-16T23:47:48.510Z,16.50
2018-09-16T23:50:16.902Z,16.70
2018-09-16T23:52:45.546Z,16.70
2018-09-16T23:55:14.053Z,16.70
2018-09-16T23:57:42.505Z,16.60
